Burton, TX (77835)

7:21 AM CDT on May 28, 2015 (GMT -0500)
Four Labs Vineyards | | Change Station
CLOSE
Current Station
Personal Weather Station
Location: Burton, TX
Elevation: 492 ft
Nearby Weather Stations

Elev 492 ft 30.18 °N, 96.65 °W | Updated 24 seconds ago

Overcast
Overcast
72.1 °F
Feels Like 72.1 °F
N
2.9
Wind Variable Wind from NNE
Gusts 4.0 mph

Today
High -- | Low -- °F
--% Chance of Precip.
Yesterday
High -- | Low -- °F
Precip. -- in
6:26 AM 8:21 PM
Waxing Gibbous, 75% visible
Pressure 30.07 in
Visibility 5.0 miles
Clouds Overcast 600 ft
Dew Point 71 °F
Humidity 97%
Rainfall 0.00 in
Snow Depth Not available.
UV 0 out of 12
Pollen 4.00 out of 12
Air Quality Not available.
Flu Activity Sporadic
METAR K11R 281215Z AUTO 00000KT 5SM BR OVC006 23/23 A3007 RMK AO2 T02300227

More Conditions Fewer Conditions

Pressure 30.07 in
Visibility 5.0 miles
Clouds Overcast 600 ft
Dew Point 71 °F
Humidity 97%
Rainfall 0.00 in
Snow Depth Not available.
UV 0 out of 12
Pollen 4.00 out of 12
Air Quality Not available.
Flu Activity Sporadic
METAR K11R 281215Z AUTO 00000KT 5SM BR OVC006 23/23 A3007 RMK AO2 T02300227

More Conditions Fewer Conditions

10-Day Weather Forecast

Almanac

Astronomy

May. 28, 2015 Rise Set
Actual Time
Civil Twilight
Nautical Twilight
Astronomical Twilight
Moon
Length of Visible Light
Length of Day
Tomorrow will be .
, % of the Moon is Illuminated

Today's Extremes

State Highs State Lows

Community

WunderPhotos

Upload Photos

1,824,960 photos uploaded!

WunderBlogs® & News

Nearby

Air Quality

  Air Quality AQ Index Pollutant
Not available.

Snow Depth

Station Depth Elevation

Earthquake Activity

City Distance Mag. Time & Date
Minimum magnitude displayed is 2.5.

Coastal Water Temperatures

Place Temperature

Stations

Nearby Weather Stations

Station Location Temp. Windchill Dew Point Humidity Wind Precip. Elev Updated Type